sensor_id;sensor_type;location;lat;lon;timestamp;P1;durP1;ratioP1;P2;durP2;ratioP2
77453;SDS011;66538;53.150;18.160;2023-11-18T00:00:38;14.30;;;7.70;;
77453;SDS011;66538;53.150;18.160;2023-11-18T00:03:25;14.10;;;7.00;;
77453;SDS011;66538;53.150;18.160;2023-11-18T00:05:52;18.20;;;8.50;;
77453;SDS011;66538;53.150;18.160;2023-11-18T00:08:19;15.70;;;7.20;;
77453;SDS011;66538;53.150;18.160;2023-11-18T00:10:46;13.10;;;6.90;;
77453;SDS011;66538;53.150;18.160;2023-11-18T00:13:13;18.60;;;9.40;;
77453;SDS011;66538;53.150;18.160;2023-11-18T00:15:40;14.60;;;7.80;;
77453;SDS011;66538;53.150;18.160;2023-11-18T00:18:07;15.90;;;7.40;;
77453;SDS011;66538;53.150;18.160;2023-11-18T00:20:33;13.90;;;7.10;;
77453;SDS011;66538;53.150;18.160;2023-11-18T00:23:02;14.80;;;8.00;;
77453;SDS011;66538;53.150;18.160;2023-11-18T00:25:31;13.60;;;6.70;;
77453;SDS011;66538;53.150;18.160;2023-11-18T00:27:58;11.90;;;6.30;;
77453;SDS011;66538;53.150;18.160;2023-11-18T00:30:24;15.70;;;7.70;;
77453;SDS011;66538;53.150;18.160;2023-11-18T00:32:51;15.50;;;7.70;;
77453;SDS011;66538;53.150;18.160;2023-11-18T00:35:18;13.90;;;7.10;;
77453;SDS011;66538;53.150;18.160;2023-11-18T00:37:45;17.00;;;8.80;;
77453;SDS011;66538;53.150;18.160;2023-11-18T00:40:12;15.00;;;7.30;;
77453;SDS011;66538;53.150;18.160;2023-11-18T00:42:38;14.70;;;7.40;;
77453;SDS011;66538;53.150;18.160;2023-11-18T00:45:05;18.60;;;8.00;;
77453;SDS011;66538;53.150;18.160;2023-11-18T00:47:34;15.70;;;8.30;;
77453;SDS011;66538;53.150;18.160;2023-11-18T00:50:01;17.40;;;8.10;;
77453;SDS011;66538;53.150;18.160;2023-11-18T00:52:28;18.40;;;8.50;;
77453;SDS011;66538;53.150;18.160;2023-11-18T00:54:55;18.30;;;8.50;;
77453;SDS011;66538;53.150;18.160;2023-11-18T00:57:21;17.10;;;7.70;;
77453;SDS011;66538;53.150;18.160;2023-11-18T00:59:48;15.60;;;7.60;;
77453;SDS011;66538;53.150;18.160;2023-11-18T01:02:16;16.70;;;7.90;;
77453;SDS011;66538;53.150;18.160;2023-11-18T01:04:44;14.70;;;7.40;;
77453;SDS011;66538;53.150;18.160;2023-11-18T01:07:12;13.80;;;7.00;;
77453;SDS011;66538;53.150;18.160;2023-11-18T01:09:38;14.60;;;7.10;;
77453;SDS011;66538;53.150;18.160;2023-11-18T01:12:05;15.40;;;7.70;;
77453;SDS011;66538;53.150;18.160;2023-11-18T01:14:36;13.20;;;7.40;;
77453;SDS011;66538;53.150;18.160;2023-11-18T01:19:32;14.40;;;6.90;;
77453;SDS011;66538;53.150;18.160;2023-11-18T01:22:00;13.30;;;6.60;;
77453;SDS011;66538;53.150;18.160;2023-11-18T01:24:27;17.00;;;7.10;;
77453;SDS011;66538;53.150;18.160;2023-11-18T01:26:54;14.60;;;7.10;;
77453;SDS011;66538;53.150;18.160;2023-11-18T01:29:21;15.30;;;6.50;;
77453;SDS011;66538;53.150;18.160;2023-11-18T01:31:48;20.50;;;9.20;;
77453;SDS011;66538;53.150;18.160;2023-11-18T01:34:15;16.70;;;8.40;;
77453;SDS011;66538;53.150;18.160;2023-11-18T01:36:43;16.00;;;7.80;;
77453;SDS011;66538;53.150;18.160;2023-11-18T01:39:10;14.10;;;7.30;;
77453;SDS011;66538;53.150;18.160;2023-11-18T01:41:36;12.80;;;6.80;;
77453;SDS011;66538;53.150;18.160;2023-11-18T01:44:03;15.30;;;7.90;;
77453;SDS011;66538;53.150;18.160;2023-11-18T01:46:31;15.40;;;7.50;;
77453;SDS011;66538;53.150;18.160;2023-11-18T01:48:57;11.50;;;6.00;;
77453;SDS011;66538;53.150;18.160;2023-11-18T01:51:25;15.40;;;7.50;;
77453;SDS011;66538;53.150;18.160;2023-11-18T01:53:52;16.30;;;7.90;;
77453;SDS011;66538;53.150;18.160;2023-11-18T01:56:19;14.70;;;6.90;;
77453;SDS011;66538;53.150;18.160;2023-11-18T01:58:47;16.00;;;7.50;;
77453;SDS011;66538;53.150;18.160;2023-11-18T02:01:15;13.00;;;6.70;;
77453;SDS011;66538;53.150;18.160;2023-11-18T02:03:44;16.00;;;7.70;;
77453;SDS011;66538;53.150;18.160;2023-11-18T02:06:10;12.70;;;7.00;;
77453;SDS011;66538;53.150;18.160;2023-11-18T02:08:39;18.00;;;7.90;;
77453;SDS011;66538;53.150;18.160;2023-11-18T02:11:14;18.90;;;8.30;;
77453;SDS011;66538;53.150;18.160;2023-11-18T02:14:11;16.40;;;7.50;;
77453;SDS011;66538;53.150;18.160;2023-11-18T02:16:42;14.10;;;6.90;;
77453;SDS011;66538;53.150;18.160;2023-11-18T02:19:16;15.40;;;7.40;;
77453;SDS011;66538;53.150;18.160;2023-11-18T02:21:48;12.60;;;6.50;;
77453;SDS011;66538;53.150;18.160;2023-11-18T02:24:25;14.20;;;7.00;;
77453;SDS011;66538;53.150;18.160;2023-11-18T02:26:54;12.70;;;6.40;;
77453;SDS011;66538;53.150;18.160;2023-11-18T02:29:24;15.00;;;7.60;;
77453;SDS011;66538;53.150;18.160;2023-11-18T02:31:52;14.00;;;6.70;;
77453;SDS011;66538;53.150;18.160;2023-11-18T02:34:27;14.90;;;7.10;;
77453;SDS011;66538;53.150;18.160;2023-11-18T02:36:58;13.60;;;6.40;;
77453;SDS011;66538;53.150;18.160;2023-11-18T02:39:29;12.90;;;6.60;;
77453;SDS011;66538;53.150;18.160;2023-11-18T02:42:04;13.70;;;6.20;;
77453;SDS011;66538;53.150;18.160;2023-11-18T02:44:38;11.20;;;5.40;;
77453;SDS011;66538;53.150;18.160;2023-11-18T02:47:05;12.70;;;6.20;;
77453;SDS011;66538;53.150;18.160;2023-11-18T02:49:33;14.80;;;6.80;;
77453;SDS011;66538;53.150;18.160;2023-11-18T02:52:01;12.50;;;6.50;;
77453;SDS011;66538;53.150;18.160;2023-11-18T02:54:29;13.00;;;6.60;;
77453;SDS011;66538;53.150;18.160;2023-11-18T02:56:55;15.60;;;7.80;;
77453;SDS011;66538;53.150;18.160;2023-11-18T02:59:22;12.00;;;6.10;;
77453;SDS011;66538;53.150;18.160;2023-11-18T03:01:53;14.20;;;6.40;;
77453;SDS011;66538;53.150;18.160;2023-11-18T03:04:21;14.20;;;7.70;;
77453;SDS011;66538;53.150;18.160;2023-11-18T03:06:50;11.00;;;4.80;;
77453;SDS011;66538;53.150;18.160;2023-11-18T03:09:17;13.90;;;6.50;;
77453;SDS011;66538;53.150;18.160;2023-11-18T03:11:46;14.60;;;6.50;;
77453;SDS011;66538;53.150;18.160;2023-11-18T03:14:13;14.40;;;6.80;;
77453;SDS011;66538;53.150;18.160;2023-11-18T03:16:39;12.60;;;6.20;;
77453;SDS011;66538;53.150;18.160;2023-11-18T03:19:06;13.00;;;6.80;;
77453;SDS011;66538;53.150;18.160;2023-11-18T03:21:35;14.60;;;6.70;;
77453;SDS011;66538;53.150;18.160;2023-11-18T03:24:02;10.70;;;5.90;;
77453;SDS011;66538;53.150;18.160;2023-11-18T03:26:29;13.90;;;6.40;;
77453;SDS011;66538;53.150;18.160;2023-11-18T03:28:56;13.50;;;6.00;;
77453;SDS011;66538;53.150;18.160;2023-11-18T03:31:23;14.10;;;7.20;;
77453;SDS011;66538;53.150;18.160;2023-11-18T03:33:49;11.50;;;5.10;;
77453;SDS011;66538;53.150;18.160;2023-11-18T03:36:16;10.90;;;5.10;;
77453;SDS011;66538;53.150;18.160;2023-11-18T03:38:44;13.20;;;5.60;;
77453;SDS011;66538;53.150;18.160;2023-11-18T03:41:11;12.60;;;5.90;;
77453;SDS011;66538;53.150;18.160;2023-11-18T03:43:39;14.60;;;7.20;;
77453;SDS011;66538;53.150;18.160;2023-11-18T03:46:05;12.70;;;5.30;;
77453;SDS011;66538;53.150;18.160;2023-11-18T03:48:33;12.90;;;6.40;;
77453;SDS011;66538;53.150;18.160;2023-11-18T03:51:00;12.00;;;5.90;;
77453;SDS011;66538;53.150;18.160;2023-11-18T03:53:27;8.50;;;4.70;;
77453;SDS011;66538;53.150;18.160;2023-11-18T03:55:54;13.30;;;6.40;;
77453;SDS011;66538;53.150;18.160;2023-11-18T03:58:20;11.60;;;5.40;;
77453;SDS011;66538;53.150;18.160;2023-11-18T04:00:47;12.70;;;5.80;;
77453;SDS011;66538;53.150;18.160;2023-11-18T04:03:14;14.10;;;7.00;;
77453;SDS011;66538;53.150;18.160;2023-11-18T04:05:40;13.60;;;7.20;;
77453;SDS011;66538;53.150;18.160;2023-11-18T04:08:07;13.80;;;6.10;;
77453;SDS011;66538;53.150;18.160;2023-11-18T04:10:33;16.10;;;7.90;;
77453;SDS011;66538;53.150;18.160;2023-11-18T04:13:00;12.50;;;6.20;;
77453;SDS011;66538;53.150;18.160;2023-11-18T04:15:27;16.40;;;7.40;;
77453;SDS011;66538;53.150;18.160;2023-11-18T04:17:54;15.60;;;6.70;;
77453;SDS011;66538;53.150;18.160;2023-11-18T04:20:21;15.70;;;7.10;;
77453;SDS011;66538;53.150;18.160;2023-11-18T04:22:48;16.20;;;7.90;;
77453;SDS011;66538;53.150;18.160;2023-11-18T04:25:14;15.30;;;7.80;;
77453;SDS011;66538;53.150;18.160;2023-11-18T04:27:41;20.40;;;9.00;;
77453;SDS011;66538;53.150;18.160;2023-11-18T04:30:08;20.90;;;9.00;;
77453;SDS011;66538;53.150;18.160;2023-11-18T04:32:35;22.10;;;10.20;;
77453;SDS011;66538;53.150;18.160;2023-11-18T04:35:02;24.00;;;9.80;;
77453;SDS011;66538;53.150;18.160;2023-11-18T04:37:36;19.70;;;9.20;;
77453;SDS011;66538;53.150;18.160;2023-11-18T04:40:03;23.90;;;9.60;;
77453;SDS011;66538;53.150;18.160;2023-11-18T04:42:30;25.20;;;10.40;;
77453;SDS011;66538;53.150;18.160;2023-11-18T04:44:57;17.50;;;8.00;;
77453;SDS011;66538;53.150;18.160;2023-11-18T04:47:24;17.50;;;7.90;;
77453;SDS011;66538;53.150;18.160;2023-11-18T04:49:53;20.40;;;8.70;;
77453;SDS011;66538;53.150;18.160;2023-11-18T04:52:20;18.50;;;7.40;;
77453;SDS011;66538;53.150;18.160;2023-11-18T04:54:47;27.00;;;11.40;;
77453;SDS011;66538;53.150;18.160;2023-11-18T04:57:16;16.70;;;8.00;;
77453;SDS011;66538;53.150;18.160;2023-11-18T04:59:43;19.10;;;7.50;;
77453;SDS011;66538;53.150;18.160;2023-11-18T05:02:10;21.10;;;8.70;;
77453;SDS011;66538;53.150;18.160;2023-11-18T05:04:36;18.80;;;8.30;;
77453;SDS011;66538;53.150;18.160;2023-11-18T05:07:03;25.40;;;10.30;;
77453;SDS011;66538;53.150;18.160;2023-11-18T05:09:30;32.80;;;13.20;;
77453;SDS011;66538;53.150;18.160;2023-11-18T05:11:58;16.70;;;7.60;;
77453;SDS011;66538;53.150;18.160;2023-11-18T05:14:25;24.20;;;11.40;;
77453;SDS011;66538;53.150;18.160;2023-11-18T05:16:52;23.90;;;10.30;;
77453;SDS011;66538;53.150;18.160;2023-11-18T05:19:20;17.70;;;8.10;;
77453;SDS011;66538;53.150;18.160;2023-11-18T05:21:47;18.50;;;8.90;;
77453;SDS011;66538;53.150;18.160;2023-11-18T05:24:15;19.90;;;8.80;;
77453;SDS011;66538;53.150;18.160;2023-11-18T05:26:42;22.60;;;10.20;;
77453;SDS011;66538;53.150;18.160;2023-11-18T05:29:09;22.80;;;9.60;;
77453;SDS011;66538;53.150;18.160;2023-11-18T05:31:36;19.20;;;8.80;;
77453;SDS011;66538;53.150;18.160;2023-11-18T05:34:03;22.40;;;9.50;;
77453;SDS011;66538;53.150;18.160;2023-11-18T05:36:31;29.00;;;12.40;;
77453;SDS011;66538;53.150;18.160;2023-11-18T05:39:04;19.30;;;9.20;;
77453;SDS011;66538;53.150;18.160;2023-11-18T05:41:35;17.80;;;7.60;;
77453;SDS011;66538;53.150;18.160;2023-11-18T05:44:05;18.60;;;8.10;;
77453;SDS011;66538;53.150;18.160;2023-11-18T05:46:35;18.30;;;7.90;;
77453;SDS011;66538;53.150;18.160;2023-11-18T05:49:02;17.00;;;7.80;;
77453;SDS011;66538;53.150;18.160;2023-11-18T05:51:34;18.50;;;8.50;;
77453;SDS011;66538;53.150;18.160;2023-11-18T05:54:01;19.30;;;8.90;;
77453;SDS011;66538;53.150;18.160;2023-11-18T05:56:28;14.80;;;6.50;;
77453;SDS011;66538;53.150;18.160;2023-11-18T05:58:54;16.70;;;8.70;;
77453;SDS011;66538;53.150;18.160;2023-11-18T06:01:21;16.40;;;8.10;;
77453;SDS011;66538;53.150;18.160;2023-11-18T06:03:48;19.40;;;8.30;;
77453;SDS011;66538;53.150;18.160;2023-11-18T06:06:15;30.70;;;12.20;;
77453;SDS011;66538;53.150;18.160;2023-11-18T06:08:42;20.50;;;9.30;;
77453;SDS011;66538;53.150;18.160;2023-11-18T06:11:10;16.50;;;8.10;;
77453;SDS011;66538;53.150;18.160;2023-11-18T06:13:43;17.90;;;9.00;;
77453;SDS011;66538;53.150;18.160;2023-11-18T06:16:21;16.10;;;7.20;;
77453;SDS011;66538;53.150;18.160;2023-11-18T06:18:53;15.40;;;7.10;;
77453;SDS011;66538;53.150;18.160;2023-11-18T06:21:24;14.10;;;6.70;;
77453;SDS011;66538;53.150;18.160;2023-11-18T06:23:57;18.00;;;7.50;;
77453;SDS011;66538;53.150;18.160;2023-11-18T06:26:25;15.50;;;7.00;;
77453;SDS011;66538;53.150;18.160;2023-11-18T06:28:53;13.40;;;6.70;;
77453;SDS011;66538;53.150;18.160;2023-11-18T06:31:20;13.40;;;6.20;;
77453;SDS011;66538;53.150;18.160;2023-11-18T06:33:50;16.70;;;8.30;;
77453;SDS011;66538;53.150;18.160;2023-11-18T06:36:20;14.70;;;6.50;;
77453;SDS011;66538;53.150;18.160;2023-11-18T06:38:53;14.40;;;6.90;;
77453;SDS011;66538;53.150;18.160;2023-11-18T06:41:21;16.00;;;7.50;;
77453;SDS011;66538;53.150;18.160;2023-11-18T06:43:59;14.00;;;6.20;;
77453;SDS011;66538;53.150;18.160;2023-11-18T06:46:35;14.60;;;7.10;;
77453;SDS011;66538;53.150;18.160;2023-11-18T06:49:06;13.50;;;6.30;;
77453;SDS011;66538;53.150;18.160;2023-11-18T06:51:34;13.40;;;6.70;;
77453;SDS011;66538;53.150;18.160;2023-11-18T06:54:01;17.00;;;7.90;;
77453;SDS011;66538;53.150;18.160;2023-11-18T06:56:35;15.50;;;7.10;;
77453;SDS011;66538;53.150;18.160;2023-11-18T06:59:05;18.50;;;7.90;;
77453;SDS011;66538;53.150;18.160;2023-11-18T07:01:50;16.30;;;7.80;;
77453;SDS011;66538;53.150;18.160;2023-11-18T07:04:17;14.90;;;6.80;;
77453;SDS011;66538;53.150;18.160;2023-11-18T07:06:45;19.40;;;8.70;;
77453;SDS011;66538;53.150;18.160;2023-11-18T07:09:12;18.00;;;7.90;;
77453;SDS011;66538;53.150;18.160;2023-11-18T07:11:40;13.50;;;6.90;;
77453;SDS011;66538;53.150;18.160;2023-11-18T07:14:10;13.40;;;6.80;;
77453;SDS011;66538;53.150;18.160;2023-11-18T07:16:38;20.60;;;8.50;;
77453;SDS011;66538;53.150;18.160;2023-11-18T07:19:06;18.60;;;7.80;;
77453;SDS011;66538;53.150;18.160;2023-11-18T07:21:33;14.50;;;7.60;;
77453;SDS011;66538;53.150;18.160;2023-11-18T07:24:00;15.90;;;7.30;;
77453;SDS011;66538;53.150;18.160;2023-11-18T07:26:28;17.90;;;8.10;;
77453;SDS011;66538;53.150;18.160;2023-11-18T07:28:55;16.00;;;6.80;;
77453;SDS011;66538;53.150;18.160;2023-11-18T07:31:22;18.00;;;8.20;;
77453;SDS011;66538;53.150;18.160;2023-11-18T07:33:49;15.60;;;7.40;;
77453;SDS011;66538;53.150;18.160;2023-11-18T07:36:19;15.10;;;6.90;;
77453;SDS011;66538;53.150;18.160;2023-11-18T07:38:49;18.60;;;8.30;;
77453;SDS011;66538;53.150;18.160;2023-11-18T07:41:18;27.60;;;11.60;;
77453;SDS011;66538;53.150;18.160;2023-11-18T07:43:50;15.30;;;7.90;;
77453;SDS011;66538;53.150;18.160;2023-11-18T07:46:19;16.90;;;7.70;;
77453;SDS011;66538;53.150;18.160;2023-11-18T07:48:49;19.90;;;8.20;;
77453;SDS011;66538;53.150;18.160;2023-11-18T07:51:16;16.30;;;7.00;;
77453;SDS011;66538;53.150;18.160;2023-11-18T07:53:42;15.50;;;7.10;;
77453;SDS011;66538;53.150;18.160;2023-11-18T07:56:09;13.40;;;6.10;;
77453;SDS011;66538;53.150;18.160;2023-11-18T07:58:38;16.00;;;7.40;;
77453;SDS011;66538;53.150;18.160;2023-11-18T08:01:05;17.50;;;7.30;;
77453;SDS011;66538;53.150;18.160;2023-11-18T08:03:33;13.20;;;6.40;;
77453;SDS011;66538;53.150;18.160;2023-11-18T08:06:00;13.80;;;6.40;;
77453;SDS011;66538;53.150;18.160;2023-11-18T08:08:28;15.20;;;7.20;;
77453;SDS011;66538;53.150;18.160;2023-11-18T08:10:55;16.40;;;7.30;;
77453;SDS011;66538;53.150;18.160;2023-11-18T08:13:22;13.00;;;6.50;;
77453;SDS011;66538;53.150;18.160;2023-11-18T08:15:48;20.20;;;8.70;;
77453;SDS011;66538;53.150;18.160;2023-11-18T08:18:15;16.80;;;7.90;;
77453;SDS011;66538;53.150;18.160;2023-11-18T08:20:43;21.30;;;9.80;;
77453;SDS011;66538;53.150;18.160;2023-11-18T08:23:10;18.20;;;8.60;;
77453;SDS011;66538;53.150;18.160;2023-11-18T08:25:36;16.20;;;8.80;;
77453;SDS011;66538;53.150;18.160;2023-11-18T08:28:03;19.00;;;9.50;;
77453;SDS011;66538;53.150;18.160;2023-11-18T08:30:31;21.90;;;9.50;;
77453;SDS011;66538;53.150;18.160;2023-11-18T08:35:27;21.40;;;8.80;;
77453;SDS011;66538;53.150;18.160;2023-11-18T08:37:55;27.40;;;12.30;;
77453;SDS011;66538;53.150;18.160;2023-11-18T08:40:22;23.50;;;11.00;;
77453;SDS011;66538;53.150;18.160;2023-11-18T08:42:49;22.60;;;10.20;;
77453;SDS011;66538;53.150;18.160;2023-11-18T08:45:18;19.60;;;9.20;;
77453;SDS011;66538;53.150;18.160;2023-11-18T08:47:55;19.80;;;9.50;;
77453;SDS011;66538;53.150;18.160;2023-11-18T08:50:24;22.30;;;10.60;;
77453;SDS011;66538;53.150;18.160;2023-11-18T08:52:52;18.40;;;9.40;;
77453;SDS011;66538;53.150;18.160;2023-11-18T08:55:29;18.40;;;9.60;;
77453;SDS011;66538;53.150;18.160;2023-11-18T08:58:08;15.60;;;7.80;;
77453;SDS011;66538;53.150;18.160;2023-11-18T09:00:57;19.80;;;9.20;;
77453;SDS011;66538;53.150;18.160;2023-11-18T09:03:40;21.20;;;10.60;;
77453;SDS011;66538;53.150;18.160;2023-11-18T09:06:18;17.40;;;7.80;;
77453;SDS011;66538;53.150;18.160;2023-11-18T09:08:45;16.10;;;7.80;;
77453;SDS011;66538;53.150;18.160;2023-11-18T09:11:19;20.60;;;9.90;;
77453;SDS011;66538;53.150;18.160;2023-11-18T09:13:49;16.60;;;7.90;;
77453;SDS011;66538;53.150;18.160;2023-11-18T09:16:20;18.30;;;9.30;;
77453;SDS011;66538;53.150;18.160;2023-11-18T09:18:51;16.40;;;8.20;;
77453;SDS011;66538;53.150;18.160;2023-11-18T09:21:18;18.40;;;8.80;;
77453;SDS011;66538;53.150;18.160;2023-11-18T09:23:51;15.00;;;7.40;;
77453;SDS011;66538;53.150;18.160;2023-11-18T09:26:17;14.40;;;7.10;;
77453;SDS011;66538;53.150;18.160;2023-11-18T09:28:44;21.00;;;10.20;;
77453;SDS011;66538;53.150;18.160;2023-11-18T09:31:11;22.10;;;11.20;;
77453;SDS011;66538;53.150;18.160;2023-11-18T09:33:39;24.80;;;13.00;;
77453;SDS011;66538;53.150;18.160;2023-11-18T09:36:11;26.70;;;12.70;;
77453;SDS011;66538;53.150;18.160;2023-11-18T09:38:39;23.30;;;12.30;;
77453;SDS011;66538;53.150;18.160;2023-11-18T09:41:09;27.30;;;12.60;;
77453;SDS011;66538;53.150;18.160;2023-11-18T09:43:40;28.30;;;12.40;;
77453;SDS011;66538;53.150;18.160;2023-11-18T09:46:15;22.90;;;11.20;;
77453;SDS011;66538;53.150;18.160;2023-11-18T09:48:43;19.70;;;10.90;;
77453;SDS011;66538;53.150;18.160;2023-11-18T09:53:50;15.80;;;8.80;;
77453;SDS011;66538;53.150;18.160;2023-11-18T09:56:31;23.20;;;11.50;;
77453;SDS011;66538;53.150;18.160;2023-11-18T10:01:42;17.80;;;9.50;;
77453;SDS011;66538;53.150;18.160;2023-11-18T10:04:13;19.80;;;9.80;;
77453;SDS011;66538;53.150;18.160;2023-11-18T10:06:44;16.00;;;8.80;;
77453;SDS011;66538;53.150;18.160;2023-11-18T10:09:13;17.00;;;8.60;;
77453;SDS011;66538;53.150;18.160;2023-11-18T10:11:51;15.70;;;9.30;;
77453;SDS011;66538;53.150;18.160;2023-11-18T10:14:21;18.50;;;9.40;;
77453;SDS011;66538;53.150;18.160;2023-11-18T10:16:49;17.00;;;8.40;;
77453;SDS011;66538;53.150;18.160;2023-11-18T10:19:20;16.10;;;8.20;;
77453;SDS011;66538;53.150;18.160;2023-11-18T10:21:47;12.60;;;6.90;;
77453;SDS011;66538;53.150;18.160;2023-11-18T10:24:16;15.80;;;8.30;;
77453;SDS011;66538;53.150;18.160;2023-11-18T10:29:24;17.20;;;7.90;;
77453;SDS011;66538;53.150;18.160;2023-11-18T10:32:06;15.00;;;9.00;;
77453;SDS011;66538;53.150;18.160;2023-11-18T10:34:42;14.50;;;8.20;;
77453;SDS011;66538;53.150;18.160;2023-11-18T10:37:09;13.20;;;7.60;;
77453;SDS011;66538;53.150;18.160;2023-11-18T10:39:37;12.80;;;6.70;;
77453;SDS011;66538;53.150;18.160;2023-11-18T10:42:03;13.60;;;7.40;;
77453;SDS011;66538;53.150;18.160;2023-11-18T10:44:31;12.20;;;7.10;;
77453;SDS011;66538;53.150;18.160;2023-11-18T10:46:58;15.00;;;8.50;;
77453;SDS011;66538;53.150;18.160;2023-11-18T10:49:28;15.80;;;8.60;;
77453;SDS011;66538;53.150;18.160;2023-11-18T10:51:55;14.80;;;7.50;;
77453;SDS011;66538;53.150;18.160;2023-11-18T10:54:26;13.60;;;7.40;;
77453;SDS011;66538;53.150;18.160;2023-11-18T10:56:53;15.10;;;7.90;;
77453;SDS011;66538;53.150;18.160;2023-11-18T10:59:22;17.00;;;9.90;;
77453;SDS011;66538;53.150;18.160;2023-11-18T11:01:49;15.60;;;8.30;;
77453;SDS011;66538;53.150;18.160;2023-11-18T11:04:16;15.00;;;8.50;;
77453;SDS011;66538;53.150;18.160;2023-11-18T11:06:49;17.60;;;10.30;;
77453;SDS011;66538;53.150;18.160;2023-11-18T11:09:19;18.00;;;9.70;;
77453;SDS011;66538;53.150;18.160;2023-11-18T11:11:57;14.00;;;7.00;;
77453;SDS011;66538;53.150;18.160;2023-11-18T11:14:34;13.90;;;8.40;;
77453;SDS011;66538;53.150;18.160;2023-11-18T11:17:08;16.90;;;10.60;;
77453;SDS011;66538;53.150;18.160;2023-11-18T11:22:25;15.30;;;8.50;;
77453;SDS011;66538;53.150;18.160;2023-11-18T11:25:10;13.20;;;6.90;;
77453;SDS011;66538;53.150;18.160;2023-11-18T11:27:46;12.60;;;7.10;;
77453;SDS011;66538;53.150;18.160;2023-11-18T11:30:29;12.10;;;7.80;;
77453;SDS011;66538;53.150;18.160;2023-11-18T11:35:44;13.50;;;7.40;;
77453;SDS011;66538;53.150;18.160;2023-11-18T11:38:15;13.80;;;8.30;;
77453;SDS011;66538;53.150;18.160;2023-11-18T11:40:43;16.70;;;8.50;;
77453;SDS011;66538;53.150;18.160;2023-11-18T11:43:12;11.70;;;6.30;;
77453;SDS011;66538;53.150;18.160;2023-11-18T11:45:42;12.20;;;6.90;;
77453;SDS011;66538;53.150;18.160;2023-11-18T11:48:09;12.00;;;6.00;;
77453;SDS011;66538;53.150;18.160;2023-11-18T11:50:45;11.80;;;5.90;;
77453;SDS011;66538;53.150;18.160;2023-11-18T11:53:56;10.00;;;5.40;;
77453;SDS011;66538;53.150;18.160;2023-11-18T11:56:43;8.40;;;4.10;;
77453;SDS011;66538;53.150;18.160;2023-11-18T11:59:16;11.40;;;5.90;;
77453;SDS011;66538;53.150;18.160;2023-11-18T12:01:43;11.50;;;5.70;;
77453;SDS011;66538;53.150;18.160;2023-11-18T12:04:16;9.70;;;5.20;;
77453;SDS011;66538;53.150;18.160;2023-11-18T12:09:22;9.30;;;4.70;;
77453;SDS011;66538;53.150;18.160;2023-11-18T12:11:59;10.60;;;5.20;;
77453;SDS011;66538;53.150;18.160;2023-11-18T12:14:27;10.40;;;5.40;;
77453;SDS011;66538;53.150;18.160;2023-11-18T12:19:30;11.20;;;6.00;;
77453;SDS011;66538;53.150;18.160;2023-11-18T12:22:03;11.80;;;6.30;;
77453;SDS011;66538;53.150;18.160;2023-11-18T12:24:39;11.30;;;6.60;;
77453;SDS011;66538;53.150;18.160;2023-11-18T12:27:06;14.20;;;7.60;;
77453;SDS011;66538;53.150;18.160;2023-11-18T12:29:42;14.40;;;7.00;;
77453;SDS011;66538;53.150;18.160;2023-11-18T12:32:12;14.00;;;6.80;;
77453;SDS011;66538;53.150;18.160;2023-11-18T12:49:44;11.70;;;5.60;;
77453;SDS011;66538;53.150;18.160;2023-11-18T12:52:16;16.40;;;9.80;;
77453;SDS011;66538;53.150;18.160;2023-11-18T12:54:45;13.40;;;8.00;;
77453;SDS011;66538;53.150;18.160;2023-11-18T12:57:19;13.30;;;6.80;;
77453;SDS011;66538;53.150;18.160;2023-11-18T12:59:49;14.10;;;8.80;;
77453;SDS011;66538;53.150;18.160;2023-11-18T13:02:16;12.60;;;6.40;;
77453;SDS011;66538;53.150;18.160;2023-11-18T13:04:46;12.50;;;6.60;;
77453;SDS011;66538;53.150;18.160;2023-11-18T13:07:16;12.70;;;6.80;;
77453;SDS011;66538;53.150;18.160;2023-11-18T13:12:20;11.20;;;5.80;;
77453;SDS011;66538;53.150;18.160;2023-11-18T13:14:49;12.30;;;5.90;;
77453;SDS011;66538;53.150;18.160;2023-11-18T13:17:17;10.50;;;6.30;;
77453;SDS011;66538;53.150;18.160;2023-11-18T13:19:44;11.10;;;6.50;;
77453;SDS011;66538;53.150;18.160;2023-11-18T13:22:12;12.20;;;6.00;;
77453;SDS011;66538;53.150;18.160;2023-11-18T13:24:40;10.80;;;6.20;;
77453;SDS011;66538;53.150;18.160;2023-11-18T13:27:15;10.00;;;6.20;;
77453;SDS011;66538;53.150;18.160;2023-11-18T13:29:49;11.80;;;6.40;;
77453;SDS011;66538;53.150;18.160;2023-11-18T13:32:17;11.00;;;6.00;;
77453;SDS011;66538;53.150;18.160;2023-11-18T13:34:44;11.40;;;6.10;;
77453;SDS011;66538;53.150;18.160;2023-11-18T13:37:12;10.90;;;6.20;;
77453;SDS011;66538;53.150;18.160;2023-11-18T13:39:52;12.40;;;6.10;;
77453;SDS011;66538;53.150;18.160;2023-11-18T13:42:21;9.90;;;5.40;;
77453;SDS011;66538;53.150;18.160;2023-11-18T13:47:17;10.10;;;5.40;;
77453;SDS011;66538;53.150;18.160;2023-11-18T13:49:45;10.00;;;5.10;;
77453;SDS011;66538;53.150;18.160;2023-11-18T13:52:12;12.40;;;7.00;;
77453;SDS011;66538;53.150;18.160;2023-11-18T13:54:42;12.70;;;6.50;;
77453;SDS011;66538;53.150;18.160;2023-11-18T13:57:11;14.90;;;7.50;;
77453;SDS011;66538;53.150;18.160;2023-11-18T13:59:38;12.20;;;7.10;;
77453;SDS011;66538;53.150;18.160;2023-11-18T14:02:05;14.60;;;7.10;;
77453;SDS011;66538;53.150;18.160;2023-11-18T14:04:35;13.80;;;7.00;;
77453;SDS011;66538;53.150;18.160;2023-11-18T14:07:03;13.20;;;6.40;;
77453;SDS011;66538;53.150;18.160;2023-11-18T14:09:35;14.20;;;7.10;;
77453;SDS011;66538;53.150;18.160;2023-11-18T14:12:03;16.80;;;8.50;;
77453;SDS011;66538;53.150;18.160;2023-11-18T14:14:33;15.20;;;8.00;;
77453;SDS011;66538;53.150;18.160;2023-11-18T14:17:00;13.80;;;7.30;;
77453;SDS011;66538;53.150;18.160;2023-11-18T14:19:27;13.40;;;7.20;;
77453;SDS011;66538;53.150;18.160;2023-11-18T14:21:55;15.10;;;7.40;;
77453;SDS011;66538;53.150;18.160;2023-11-18T14:24:22;12.50;;;6.90;;
77453;SDS011;66538;53.150;18.160;2023-11-18T14:26:54;12.70;;;6.60;;
77453;SDS011;66538;53.150;18.160;2023-11-18T14:29:21;15.00;;;8.00;;
77453;SDS011;66538;53.150;18.160;2023-11-18T14:31:49;19.40;;;9.10;;
77453;SDS011;66538;53.150;18.160;2023-11-18T14:34:15;16.70;;;9.20;;
77453;SDS011;66538;53.150;18.160;2023-11-18T14:36:42;20.90;;;9.80;;
77453;SDS011;66538;53.150;18.160;2023-11-18T14:39:09;21.40;;;10.40;;
77453;SDS011;66538;53.150;18.160;2023-11-18T14:41:36;22.90;;;12.50;;
77453;SDS011;66538;53.150;18.160;2023-11-18T14:44:03;18.80;;;10.00;;
77453;SDS011;66538;53.150;18.160;2023-11-18T14:46:31;18.80;;;8.60;;
77453;SDS011;66538;53.150;18.160;2023-11-18T14:48:57;17.80;;;8.50;;
77453;SDS011;66538;53.150;18.160;2023-11-18T14:51:24;18.80;;;9.90;;
77453;SDS011;66538;53.150;18.160;2023-11-18T14:53:52;16.90;;;8.50;;
77453;SDS011;66538;53.150;18.160;2023-11-18T14:56:19;20.00;;;10.10;;
77453;SDS011;66538;53.150;18.160;2023-11-18T14:58:46;16.10;;;7.90;;
77453;SDS011;66538;53.150;18.160;2023-11-18T15:01:15;20.30;;;9.50;;
77453;SDS011;66538;53.150;18.160;2023-11-18T15:06:14;14.10;;;7.20;;
77453;SDS011;66538;53.150;18.160;2023-11-18T15:08:42;17.20;;;9.40;;
77453;SDS011;66538;53.150;18.160;2023-11-18T15:11:09;18.00;;;9.80;;
77453;SDS011;66538;53.150;18.160;2023-11-18T15:13:36;16.70;;;8.70;;
77453;SDS011;66538;53.150;18.160;2023-11-18T15:16:03;18.90;;;9.30;;
77453;SDS011;66538;53.150;18.160;2023-11-18T15:18:30;16.80;;;9.10;;